Meteo Giornale » Osservazioni meteo Francia » Grenoble-St Geoirs

ore: 12:00 - Osservazioni Meteo Grenoble-St Geoirs
Lat. 45° 22' N Lon. 5° 20' E Alt. 384 metri s.l.m.

sereno Europe/Paris

8 °C

Sereno

Temp. 24 Ore

1 °C

10 °C

Est/Nord-Est

13 Km/h

Dew point 4 °C

Umidità 75 %

Visibilità  10 Km

Il sole sorge alle ore 07:49

Il sole tramonta alle ore 17:02

Data e Ora Cielo e Fenomeni T °C DP °C Um. % Pres. hPa Vis. km Vento km/h
Oggi h: 12:00 sereno Sereno 8 4 75 1020 10 E/NE 13
Oggi h: 11:30 sereno Sereno 8 3 70 1020 10 E/NE 14.8
Oggi h: 11:00 sereno Sereno 7 4 81 1020 10 E/NE 14.8
Oggi h: 10:30 sereno Sereno 6 3 81 1021 10 E/NE 16.7
Oggi h: 10:00 sereno Sereno 5 2 80 1021 10 E/NE 14.8
Oggi h: 09:30 sereno Sereno 4 2 86 1020 10 E/NE 11.1
Oggi h: 09:00 sereno Sereno 3 1 86 1021 2 E/NE 11.1
Oggi h: 08:30 sereno Sereno 1 0 93 1020 9 E 16.7
Oggi h: 08:00 sereno Sereno 1 0 93 1020 10 E/NE 18.5
Oggi h: 07:30 sereno Sereno 1 -0 93 1020 10 E 16.7
Oggi h: 07:00 sereno Sereno 2 1 93 1019 10 E 18.5
Oggi h: 06:30 sereno Sereno 1 0 93 1019 10 E 22.2
Oggi h: 06:00 sereno Sereno 2 0 86 1019 10 E 20.3
Oggi h: 04:00 sereno Sereno 2 0 86 1020 9 E/NE 14.8
Oggi h: 03:30 sereno Sereno 2 1 93 1020 10 E/NE 16.7
Oggi h: 03:00 sereno Sereno 2 1 93 1020 10 E/NE 16.7
Oggi h: 02:30 sereno Sereno 2 1 93 1020 10 E 16.7
Oggi h: 02:00 sereno Sereno 2 1 93 1020 10 E 16.7
Oggi h: 01:30 sereno Sereno 2 0 86 1020 10 E 13
Oggi h: 01:00 sereno Sereno 2 1 93 1021 10 E 14.8
Oggi h: 00:30 sereno Sereno 3 1 86 1021 10 E 16.7
Oggi h: 00:00 poco_nuvoloso Poco Nuvoloso 3 2 93 1021 10 E 16.7
Ieri h: 23:30 poco_nuvoloso Poco Nuvoloso 4 2 86 1021 10 E 14.8
Ieri h: 23:00 nuvoloso Nuvoloso 5 3 86 1021 10 E 13
Ieri h: 22:30 poco_nuvoloso Poco Nuvoloso 6 3 81 1021 10 E 13
Ieri h: 22:00 sereno Sereno 3 2 93 1021 10 E 9.3
Ieri h: 21:30 sereno Sereno 3 2 93 1021 10 E 13
Ieri h: 21:00 sereno Sereno 3 1 86 1022 10 E 9.3
Ieri h: 20:30 sereno Sereno 3 1 86 1022 10 E 9.3
Ieri h: 20:00 sereno Sereno 3 1 86 1022 10 E/NE 13
Ieri h: 19:30 sereno Sereno 2 1 93 1022 10 E 11.1
Ieri h: 19:00 sereno Sereno 2 1 93 1022 10 E 13
Ieri h: 18:30 sereno Sereno 3 1 86 1022 10 E 13
Ieri h: 18:00 sereno Sereno 3 1 86 1022 10 E 13
Ieri h: 17:00 sereno Sereno 6 3 81 1022 10 E 11.1
Ieri h: 16:00 sereno Sereno 9 4 70 1022 10 E 11.1
Ieri h: 15:30 sereno Sereno 10 5 71 1022 10 E 11.1
Ieri h: 15:00 sereno Sereno 10 4 66 1022 10 E 11.1
Ieri h: 14:30 sereno Sereno 10 4 66 1022 10 E 13
Ieri h: 14:00 sereno Sereno 10 4 66 1023 10 E 16.7
Ieri h: 13:30 sereno Sereno 10 4 66 1023 10 E 16.7
Ieri h: 13:00 sereno Sereno 9 4 70 1023 10 E/NE 11.1
Ieri h: 12:30 sereno Sereno 9 4 70 1024 10 E 11.1
Ieri h: 12:00 sereno Sereno 8 4 75 1024 10 E/NE 13